sensor_id;sensor_type;location;lat;lon;timestamp;P1;durP1;ratioP1;P2;durP2;ratioP2
72194;SDS011;60095;50.180;9.032;2023-04-15T00:00:57;3.03;;;2.58;;
72194;SDS011;60095;50.180;9.032;2023-04-15T00:03:24;6.10;;;2.10;;
72194;SDS011;60095;50.180;9.032;2023-04-15T00:05:58;2.95;;;2.03;;
72194;SDS011;60095;50.180;9.032;2023-04-15T00:08:25;2.88;;;2.58;;
72194;SDS011;60095;50.180;9.032;2023-04-15T00:10:53;3.72;;;2.65;;
72194;SDS011;60095;50.180;9.032;2023-04-15T00:13:20;1.75;;;1.42;;
72194;SDS011;60095;50.180;9.032;2023-04-15T00:15:47;5.03;;;2.25;;
72194;SDS011;60095;50.180;9.032;2023-04-15T00:18:14;6.22;;;2.55;;
72194;SDS011;60095;50.180;9.032;2023-04-15T00:20:40;3.22;;;2.58;;
72194;SDS011;60095;50.180;9.032;2023-04-15T00:23:07;3.10;;;2.22;;
72194;SDS011;60095;50.180;9.032;2023-04-15T00:25:33;3.30;;;2.25;;
72194;SDS011;60095;50.180;9.032;2023-04-15T00:28:01;4.50;;;3.15;;
72194;SDS011;60095;50.180;9.032;2023-04-15T00:30:28;3.33;;;2.67;;
72194;SDS011;60095;50.180;9.032;2023-04-15T00:32:55;3.17;;;1.85;;
72194;SDS011;60095;50.180;9.032;2023-04-15T00:35:22;3.08;;;2.78;;
72194;SDS011;60095;50.180;9.032;2023-04-15T00:37:49;2.97;;;2.28;;
72194;SDS011;60095;50.180;9.032;2023-04-15T00:40:17;6.78;;;1.70;;
72194;SDS011;60095;50.180;9.032;2023-04-15T00:42:44;3.08;;;1.92;;
72194;SDS011;60095;50.180;9.032;2023-04-15T00:45:12;6.22;;;2.05;;
72194;SDS011;60095;50.180;9.032;2023-04-15T00:47:40;5.70;;;3.00;;
72194;SDS011;60095;50.180;9.032;2023-04-15T00:50:07;5.85;;;1.35;;
72194;SDS011;60095;50.180;9.032;2023-04-15T00:52:34;3.35;;;2.25;;
72194;SDS011;60095;50.180;9.032;2023-04-15T00:55:01;1.85;;;1.50;;
72194;SDS011;60095;50.180;9.032;2023-04-15T00:57:28;2.03;;;1.83;;
72194;SDS011;60095;50.180;9.032;2023-04-15T00:59:55;1.45;;;1.35;;
72194;SDS011;60095;50.180;9.032;2023-04-15T01:02:24;10.20;;;2.38;;
72194;SDS011;60095;50.180;9.032;2023-04-15T01:04:51;2.15;;;1.67;;
72194;SDS011;60095;50.180;9.032;2023-04-15T01:07:17;2.35;;;1.75;;
72194;SDS011;60095;50.180;9.032;2023-04-15T01:09:44;2.15;;;1.92;;
72194;SDS011;60095;50.180;9.032;2023-04-15T01:12:12;4.13;;;3.38;;
72194;SDS011;60095;50.180;9.032;2023-04-15T01:14:41;3.88;;;2.63;;
72194;SDS011;60095;50.180;9.032;2023-04-15T01:17:08;2.70;;;2.08;;
72194;SDS011;60095;50.180;9.032;2023-04-15T01:19:36;3.72;;;1.70;;
72194;SDS011;60095;50.180;9.032;2023-04-15T01:22:03;3.17;;;1.65;;
72194;SDS011;60095;50.180;9.032;2023-04-15T01:24:30;3.20;;;2.17;;
72194;SDS011;60095;50.180;9.032;2023-04-15T01:26:59;13.73;;;3.70;;
72194;SDS011;60095;50.180;9.032;2023-04-15T01:29:29;14.07;;;3.10;;
72194;SDS011;60095;50.180;9.032;2023-04-15T01:31:56;3.17;;;1.77;;
72194;SDS011;60095;50.180;9.032;2023-04-15T01:34:23;2.42;;;2.22;;
72194;SDS011;60095;50.180;9.032;2023-04-15T01:36:51;2.25;;;1.65;;
72194;SDS011;60095;50.180;9.032;2023-04-15T01:39:18;2.08;;;1.88;;
72194;SDS011;60095;50.180;9.032;2023-04-15T01:41:45;8.75;;;2.80;;
72194;SDS011;60095;50.180;9.032;2023-04-15T01:44:13;2.33;;;1.58;;
72194;SDS011;60095;50.180;9.032;2023-04-15T01:46:40;1.63;;;1.52;;
72194;SDS011;60095;50.180;9.032;2023-04-15T01:49:06;5.22;;;2.60;;
72194;SDS011;60095;50.180;9.032;2023-04-15T01:51:33;2.42;;;1.92;;
72194;SDS011;60095;50.180;9.032;2023-04-15T01:54:00;4.85;;;3.17;;
72194;SDS011;60095;50.180;9.032;2023-04-15T01:56:26;1.98;;;1.77;;
72194;SDS011;60095;50.180;9.032;2023-04-15T01:58:52;3.30;;;2.13;;
72194;SDS011;60095;50.180;9.032;2023-04-15T02:01:21;3.28;;;2.15;;
72194;SDS011;60095;50.180;9.032;2023-04-15T02:03:47;2.97;;;2.60;;
72194;SDS011;60095;50.180;9.032;2023-04-15T02:06:14;3.28;;;2.63;;
72194;SDS011;60095;50.180;9.032;2023-04-15T02:08:54;2.92;;;2.20;;
72194;SDS011;60095;50.180;9.032;2023-04-15T02:11:21;4.13;;;2.33;;
72194;SDS011;60095;50.180;9.032;2023-04-15T02:13:48;3.08;;;2.10;;
72194;SDS011;60095;50.180;9.032;2023-04-15T02:16:15;5.35;;;3.03;;
72194;SDS011;60095;50.180;9.032;2023-04-15T02:18:43;3.70;;;2.78;;
72194;SDS011;60095;50.180;9.032;2023-04-15T02:21:09;6.88;;;3.03;;
72194;SDS011;60095;50.180;9.032;2023-04-15T02:23:37;4.32;;;3.38;;
72194;SDS011;60095;50.180;9.032;2023-04-15T02:26:04;3.35;;;2.60;;
72194;SDS011;60095;50.180;9.032;2023-04-15T02:28:32;3.35;;;2.45;;
72194;SDS011;60095;50.180;9.032;2023-04-15T02:30:58;2.40;;;2.20;;
72194;SDS011;60095;50.180;9.032;2023-04-15T02:33:26;3.47;;;2.47;;
72194;SDS011;60095;50.180;9.032;2023-04-15T02:35:54;4.47;;;2.42;;
72194;SDS011;60095;50.180;9.032;2023-04-15T02:38:21;4.13;;;2.97;;
72194;SDS011;60095;50.180;9.032;2023-04-15T02:40:47;4.18;;;2.10;;
72194;SDS011;60095;50.180;9.032;2023-04-15T02:43:15;3.88;;;2.90;;
72194;SDS011;60095;50.180;9.032;2023-04-15T02:45:42;2.35;;;2.15;;
72194;SDS011;60095;50.180;9.032;2023-04-15T02:48:09;3.00;;;2.53;;
72194;SDS011;60095;50.180;9.032;2023-04-15T02:50:35;1.95;;;1.75;;
72194;SDS011;60095;50.180;9.032;2023-04-15T02:53:05;4.78;;;2.97;;
72194;SDS011;60095;50.180;9.032;2023-04-15T02:55:31;2.88;;;1.30;;
72194;SDS011;60095;50.180;9.032;2023-04-15T02:57:58;3.72;;;2.70;;
72194;SDS011;60095;50.180;9.032;2023-04-15T03:00:25;3.78;;;2.25;;
72194;SDS011;60095;50.180;9.032;2023-04-15T03:02:56;4.43;;;2.53;;
72194;SDS011;60095;50.180;9.032;2023-04-15T03:05:23;2.47;;;2.25;;
72194;SDS011;60095;50.180;9.032;2023-04-15T03:07:49;7.18;;;2.15;;
72194;SDS011;60095;50.180;9.032;2023-04-15T03:10:18;4.95;;;3.67;;
72194;SDS011;60095;50.180;9.032;2023-04-15T03:12:44;4.00;;;3.20;;
72194;SDS011;60095;50.180;9.032;2023-04-15T03:15:11;4.28;;;3.20;;
72194;SDS011;60095;50.180;9.032;2023-04-15T03:17:38;2.17;;;1.83;;
72194;SDS011;60095;50.180;9.032;2023-04-15T03:20:05;4.35;;;2.05;;
72194;SDS011;60095;50.180;9.032;2023-04-15T03:22:33;3.33;;;2.95;;
72194;SDS011;60095;50.180;9.032;2023-04-15T03:24:59;7.03;;;3.85;;
72194;SDS011;60095;50.180;9.032;2023-04-15T03:27:27;3.70;;;2.35;;
72194;SDS011;60095;50.180;9.032;2023-04-15T03:29:54;3.40;;;2.42;;
72194;SDS011;60095;50.180;9.032;2023-04-15T03:32:20;3.60;;;3.30;;
72194;SDS011;60095;50.180;9.032;2023-04-15T03:34:47;2.30;;;2.10;;
72194;SDS011;60095;50.180;9.032;2023-04-15T03:37:14;1.85;;;1.65;;
72194;SDS011;60095;50.180;9.032;2023-04-15T03:39:40;2.40;;;2.17;;
72194;SDS011;60095;50.180;9.032;2023-04-15T03:42:07;2.85;;;2.28;;
72194;SDS011;60095;50.180;9.032;2023-04-15T03:44:37;3.13;;;2.67;;
72194;SDS011;60095;50.180;9.032;2023-04-15T03:47:03;5.90;;;3.30;;
72194;SDS011;60095;50.180;9.032;2023-04-15T03:49:30;2.40;;;2.10;;
72194;SDS011;60095;50.180;9.032;2023-04-15T03:51:56;3.00;;;2.55;;
72194;SDS011;60095;50.180;9.032;2023-04-15T03:54:23;4.47;;;3.38;;
72194;SDS011;60095;50.180;9.032;2023-04-15T03:56:50;3.40;;;2.92;;
72194;SDS011;60095;50.180;9.032;2023-04-15T03:59:17;5.32;;;3.30;;
72194;SDS011;60095;50.180;9.032;2023-04-15T04:01:45;3.03;;;2.33;;
72194;SDS011;60095;50.180;9.032;2023-04-15T04:04:14;2.50;;;2.30;;
72194;SDS011;60095;50.180;9.032;2023-04-15T04:06:41;2.58;;;2.35;;
72194;SDS011;60095;50.180;9.032;2023-04-15T04:09:07;3.50;;;3.13;;
72194;SDS011;60095;50.180;9.032;2023-04-15T04:11:33;3.83;;;3.10;;
72194;SDS011;60095;50.180;9.032;2023-04-15T04:14:01;3.72;;;2.95;;
72194;SDS011;60095;50.180;9.032;2023-04-15T04:16:28;2.88;;;2.03;;
72194;SDS011;60095;50.180;9.032;2023-04-15T04:18:56;2.72;;;2.22;;
72194;SDS011;60095;50.180;9.032;2023-04-15T04:21:23;6.32;;;2.65;;
72194;SDS011;60095;50.180;9.032;2023-04-15T04:23:50;3.00;;;2.08;;
72194;SDS011;60095;50.180;9.032;2023-04-15T04:26:17;8.48;;;3.25;;
72194;SDS011;60095;50.180;9.032;2023-04-15T04:28:43;3.22;;;2.90;;
72194;SDS011;60095;50.180;9.032;2023-04-15T04:31:10;2.72;;;1.95;;
72194;SDS011;60095;50.180;9.032;2023-04-15T04:33:37;2.30;;;2.10;;
72194;SDS011;60095;50.180;9.032;2023-04-15T04:36:05;10.05;;;3.33;;
72194;SDS011;60095;50.180;9.032;2023-04-15T04:38:32;3.25;;;2.05;;
72194;SDS011;60095;50.180;9.032;2023-04-15T04:40:59;2.78;;;2.35;;
72194;SDS011;60095;50.180;9.032;2023-04-15T04:43:26;2.28;;;2.05;;
72194;SDS011;60095;50.180;9.032;2023-04-15T04:45:52;3.00;;;2.47;;
72194;SDS011;60095;50.180;9.032;2023-04-15T04:48:18;2.83;;;1.95;;
72194;SDS011;60095;50.180;9.032;2023-04-15T04:50:45;2.63;;;2.42;;
72194;SDS011;60095;50.180;9.032;2023-04-15T04:53:13;5.30;;;3.80;;
72194;SDS011;60095;50.180;9.032;2023-04-15T04:55:40;2.92;;;2.10;;
72194;SDS011;60095;50.180;9.032;2023-04-15T04:58:07;3.88;;;2.20;;
72194;SDS011;60095;50.180;9.032;2023-04-15T05:00:33;2.40;;;1.98;;
72194;SDS011;60095;50.180;9.032;2023-04-15T05:03:01;2.08;;;1.88;;
72194;SDS011;60095;50.180;9.032;2023-04-15T05:05:28;6.95;;;3.03;;
72194;SDS011;60095;50.180;9.032;2023-04-15T05:07:55;2.17;;;1.80;;
72194;SDS011;60095;50.180;9.032;2023-04-15T05:10:25;3.67;;;2.53;;
72194;SDS011;60095;50.180;9.032;2023-04-15T05:12:52;8.88;;;3.13;;
72194;SDS011;60095;50.180;9.032;2023-04-15T05:15:19;5.88;;;3.33;;
72194;SDS011;60095;50.180;9.032;2023-04-15T05:17:45;2.53;;;1.73;;
72194;SDS011;60095;50.180;9.032;2023-04-15T05:20:12;3.28;;;2.78;;
72194;SDS011;60095;50.180;9.032;2023-04-15T05:22:38;3.90;;;2.38;;
72194;SDS011;60095;50.180;9.032;2023-04-15T05:25:05;2.55;;;2.35;;
72194;SDS011;60095;50.180;9.032;2023-04-15T05:27:34;4.80;;;3.53;;
72194;SDS011;60095;50.180;9.032;2023-04-15T05:30:00;4.97;;;2.78;;
72194;SDS011;60095;50.180;9.032;2023-04-15T05:32:27;8.15;;;3.55;;
72194;SDS011;60095;50.180;9.032;2023-04-15T05:34:54;5.55;;;2.20;;
72194;SDS011;60095;50.180;9.032;2023-04-15T05:37:20;2.08;;;1.92;;
72194;SDS011;60095;50.180;9.032;2023-04-15T05:39:47;3.55;;;3.22;;
72194;SDS011;60095;50.180;9.032;2023-04-15T05:42:14;2.13;;;1.92;;
72194;SDS011;60095;50.180;9.032;2023-04-15T05:44:42;3.47;;;3.17;;
72194;SDS011;60095;50.180;9.032;2023-04-15T05:47:08;2.88;;;2.13;;
72194;SDS011;60095;50.180;9.032;2023-04-15T05:49:35;2.88;;;2.65;;
72194;SDS011;60095;50.180;9.032;2023-04-15T05:52:02;3.00;;;2.53;;
72194;SDS011;60095;50.180;9.032;2023-04-15T05:54:28;2.53;;;2.15;;
72194;SDS011;60095;50.180;9.032;2023-04-15T05:56:55;4.80;;;3.33;;
72194;SDS011;60095;50.180;9.032;2023-04-15T05:59:25;3.65;;;2.17;;
72194;SDS011;60095;50.180;9.032;2023-04-15T06:01:54;5.35;;;2.35;;
72194;SDS011;60095;50.180;9.032;2023-04-15T06:04:21;8.73;;;3.95;;
72194;SDS011;60095;50.180;9.032;2023-04-15T06:06:48;3.20;;;2.88;;
72194;SDS011;60095;50.180;9.032;2023-04-15T06:09:15;4.82;;;3.20;;
72194;SDS011;60095;50.180;9.032;2023-04-15T06:11:41;4.03;;;3.28;;
72194;SDS011;60095;50.180;9.032;2023-04-15T06:14:08;4.13;;;3.25;;
72194;SDS011;60095;50.180;9.032;2023-04-15T06:16:35;3.63;;;3.20;;
72194;SDS011;60095;50.180;9.032;2023-04-15T06:19:03;4.55;;;3.65;;
72194;SDS011;60095;50.180;9.032;2023-04-15T06:21:29;2.08;;;1.88;;
72194;SDS011;60095;50.180;9.032;2023-04-15T06:23:57;5.68;;;3.65;;
72194;SDS011;60095;50.180;9.032;2023-04-15T06:26:24;3.63;;;2.55;;
72194;SDS011;60095;50.180;9.032;2023-04-15T06:28:51;3.67;;;2.83;;
72194;SDS011;60095;50.180;9.032;2023-04-15T06:31:17;4.32;;;3.60;;
72194;SDS011;60095;50.180;9.032;2023-04-15T06:33:44;10.40;;;3.35;;
72194;SDS011;60095;50.180;9.032;2023-04-15T06:36:12;9.15;;;3.92;;
72194;SDS011;60095;50.180;9.032;2023-04-15T06:38:39;3.58;;;3.10;;
72194;SDS011;60095;50.180;9.032;2023-04-15T06:41:05;4.18;;;3.08;;
72194;SDS011;60095;50.180;9.032;2023-04-15T06:43:32;4.20;;;3.80;;
72194;SDS011;60095;50.180;9.032;2023-04-15T06:45:59;4.38;;;2.78;;
72194;SDS011;60095;50.180;9.032;2023-04-15T06:48:26;3.10;;;2.90;;
72194;SDS011;60095;50.180;9.032;2023-04-15T06:50:53;10.65;;;4.53;;
72194;SDS011;60095;50.180;9.032;2023-04-15T06:53:21;8.13;;;3.00;;
72194;SDS011;60095;50.180;9.032;2023-04-15T06:55:48;2.92;;;2.67;;
72194;SDS011;60095;50.180;9.032;2023-04-15T06:58:14;3.88;;;3.22;;
72194;SDS011;60095;50.180;9.032;2023-04-15T07:00:41;4.10;;;3.38;;
72194;SDS011;60095;50.180;9.032;2023-04-15T07:03:08;5.18;;;3.55;;
72194;SDS011;60095;50.180;9.032;2023-04-15T07:05:39;4.30;;;3.90;;
72194;SDS011;60095;50.180;9.032;2023-04-15T07:08:06;4.40;;;4.00;;
72194;SDS011;60095;50.180;9.032;2023-04-15T07:10:34;7.85;;;5.00;;
72194;SDS011;60095;50.180;9.032;2023-04-15T07:13:01;6.88;;;5.05;;
72194;SDS011;60095;50.180;9.032;2023-04-15T07:15:27;6.95;;;5.30;;
72194;SDS011;60095;50.180;9.032;2023-04-15T07:17:54;4.95;;;4.15;;
72194;SDS011;60095;50.180;9.032;2023-04-15T07:20:21;6.10;;;5.05;;
72194;SDS011;60095;50.180;9.032;2023-04-15T07:22:47;19.10;;;5.85;;
72194;SDS011;60095;50.180;9.032;2023-04-15T07:25:14;12.43;;;4.95;;
72194;SDS011;60095;50.180;9.032;2023-04-15T07:27:43;4.40;;;3.45;;
72194;SDS011;60095;50.180;9.032;2023-04-15T07:30:10;6.10;;;5.47;;
72194;SDS011;60095;50.180;9.032;2023-04-15T07:32:37;6.40;;;4.97;;
72194;SDS011;60095;50.180;9.032;2023-04-15T07:35:04;4.07;;;3.72;;
72194;SDS011;60095;50.180;9.032;2023-04-15T07:37:30;4.85;;;4.35;;
72194;SDS011;60095;50.180;9.032;2023-04-15T07:39:57;6.57;;;5.45;;
72194;SDS011;60095;50.180;9.032;2023-04-15T07:42:24;9.98;;;6.68;;
72194;SDS011;60095;50.180;9.032;2023-04-15T07:44:52;7.20;;;4.85;;
72194;SDS011;60095;50.180;9.032;2023-04-15T07:47:19;7.72;;;6.28;;
72194;SDS011;60095;50.180;9.032;2023-04-15T07:49:46;6.63;;;5.93;;
72194;SDS011;60095;50.180;9.032;2023-04-15T07:52:13;4.60;;;4.20;;
72194;SDS011;60095;50.180;9.032;2023-04-15T07:54:41;4.93;;;4.32;;
72194;SDS011;60095;50.180;9.032;2023-04-15T07:57:08;5.97;;;5.07;;
72194;SDS011;60095;50.180;9.032;2023-04-15T07:59:34;9.18;;;5.70;;
72194;SDS011;60095;50.180;9.032;2023-04-15T08:02:02;4.47;;;3.70;;
72194;SDS011;60095;50.180;9.032;2023-04-15T08:04:30;4.50;;;4.10;;
72194;SDS011;60095;50.180;9.032;2023-04-15T08:06:57;11.95;;;3.70;;
72194;SDS011;60095;50.180;9.032;2023-04-15T08:09:24;4.95;;;4.50;;
72194;SDS011;60095;50.180;9.032;2023-04-15T08:11:51;8.85;;;4.80;;
72194;SDS011;60095;50.180;9.032;2023-04-15T08:14:18;5.05;;;4.22;;
72194;SDS011;60095;50.180;9.032;2023-04-15T08:16:44;6.60;;;3.85;;
72194;SDS011;60095;50.180;9.032;2023-04-15T08:19:13;6.88;;;4.47;;
72194;SDS011;60095;50.180;9.032;2023-04-15T08:21:39;5.18;;;4.70;;
72194;SDS011;60095;50.180;9.032;2023-04-15T08:24:06;11.20;;;4.18;;
72194;SDS011;60095;50.180;9.032;2023-04-15T08:26:33;5.93;;;4.93;;
72194;SDS011;60095;50.180;9.032;2023-04-15T08:28:59;4.93;;;4.05;;
72194;SDS011;60095;50.180;9.032;2023-04-15T08:31:26;8.35;;;4.03;;
72194;SDS011;60095;50.180;9.032;2023-04-15T08:33:55;5.05;;;3.78;;
72194;SDS011;60095;50.180;9.032;2023-04-15T08:36:23;8.48;;;5.15;;
72194;SDS011;60095;50.180;9.032;2023-04-15T08:38:51;5.38;;;4.35;;
72194;SDS011;60095;50.180;9.032;2023-04-15T08:41:20;4.00;;;3.70;;
72194;SDS011;60095;50.180;9.032;2023-04-15T08:43:51;4.43;;;3.67;;
72194;SDS011;60095;50.180;9.032;2023-04-15T08:46:18;5.72;;;3.88;;
72194;SDS011;60095;50.180;9.032;2023-04-15T08:48:48;5.20;;;4.15;;
72194;SDS011;60095;50.180;9.032;2023-04-15T08:51:15;3.80;;;3.38;;
72194;SDS011;60095;50.180;9.032;2023-04-15T08:53:44;3.72;;;3.38;;
72194;SDS011;60095;50.180;9.032;2023-04-15T08:56:11;4.57;;;3.55;;
72194;SDS011;60095;50.180;9.032;2023-04-15T08:58:39;3.33;;;3.03;;
72194;SDS011;60095;50.180;9.032;2023-04-15T09:01:06;4.15;;;3.80;;
72194;SDS011;60095;50.180;9.032;2023-04-15T09:03:33;2.80;;;2.17;;
72194;SDS011;60095;50.180;9.032;2023-04-15T09:05:59;6.32;;;4.05;;
72194;SDS011;60095;50.180;9.032;2023-04-15T09:08:26;3.40;;;3.10;;
72194;SDS011;60095;50.180;9.032;2023-04-15T09:10:54;2.92;;;2.63;;
72194;SDS011;60095;50.180;9.032;2023-04-15T09:13:21;3.25;;;2.50;;
72194;SDS011;60095;50.180;9.032;2023-04-15T09:15:47;2.53;;;1.92;;
72194;SDS011;60095;50.180;9.032;2023-04-15T09:18:25;3.33;;;3.03;;
72194;SDS011;60095;50.180;9.032;2023-04-15T09:20:52;4.32;;;2.97;;
72194;SDS011;60095;50.180;9.032;2023-04-15T09:23:19;5.07;;;2.55;;
72194;SDS011;60095;50.180;9.032;2023-04-15T09:25:46;7.28;;;2.85;;
72194;SDS011;60095;50.180;9.032;2023-04-15T09:28:22;1.75;;;1.50;;
72194;SDS011;60095;50.180;9.032;2023-04-15T09:30:50;3.70;;;2.58;;
72194;SDS011;60095;50.180;9.032;2023-04-15T09:33:17;4.03;;;2.75;;
72194;SDS011;60095;50.180;9.032;2023-04-15T09:35:47;2.35;;;2.15;;
72194;SDS011;60095;50.180;9.032;2023-04-15T09:38:21;2.85;;;1.83;;
72194;SDS011;60095;50.180;9.032;2023-04-15T09:40:48;5.53;;;1.90;;
72194;SDS011;60095;50.180;9.032;2023-04-15T09:43:16;4.53;;;2.35;;
72194;SDS011;60095;50.180;9.032;2023-04-15T09:45:46;2.08;;;1.52;;
72194;SDS011;60095;50.180;9.032;2023-04-15T09:48:16;1.73;;;1.40;;
72194;SDS011;60095;50.180;9.032;2023-04-15T09:50:44;3.38;;;1.88;;
72194;SDS011;60095;50.180;9.032;2023-04-15T09:53:14;2.45;;;1.90;;
72194;SDS011;60095;50.180;9.032;2023-04-15T09:55:42;1.95;;;1.75;;
72194;SDS011;60095;50.180;9.032;2023-04-15T09:58:10;2.05;;;1.30;;
72194;SDS011;60095;50.180;9.032;2023-04-15T10:00:44;1.92;;;1.05;;
72194;SDS011;60095;50.180;9.032;2023-04-15T10:03:12;2.28;;;2.08;;
72194;SDS011;60095;50.180;9.032;2023-04-15T10:05:40;2.42;;;1.33;;
72194;SDS011;60095;50.180;9.032;2023-04-15T10:08:07;1.83;;;1.50;;
72194;SDS011;60095;50.180;9.032;2023-04-15T10:10:35;4.07;;;2.58;;
72194;SDS011;60095;50.180;9.032;2023-04-15T10:13:02;2.30;;;1.58;;
72194;SDS011;60095;50.180;9.032;2023-04-15T10:15:29;2.05;;;1.90;;
72194;SDS011;60095;50.180;9.032;2023-04-15T10:17:58;2.22;;;1.88;;
72194;SDS011;60095;50.180;9.032;2023-04-15T10:20:25;2.35;;;1.55;;
72194;SDS011;60095;50.180;9.032;2023-04-15T10:22:54;3.70;;;2.92;;
72194;SDS011;60095;50.180;9.032;2023-04-15T10:25:21;2.42;;;1.90;;
72194;SDS011;60095;50.180;9.032;2023-04-15T10:27:49;3.72;;;1.35;;
72194;SDS011;60095;50.180;9.032;2023-04-15T10:30:16;3.30;;;2.25;;
72194;SDS011;60095;50.180;9.032;2023-04-15T10:32:44;1.52;;;1.38;;
72194;SDS011;60095;50.180;9.032;2023-04-15T10:35:12;2.75;;;2.08;;
72194;SDS011;60095;50.180;9.032;2023-04-15T10:37:39;1.85;;;1.40;;
72194;SDS011;60095;50.180;9.032;2023-04-15T10:40:25;2.90;;;1.27;;
72194;SDS011;60095;50.180;9.032;2023-04-15T10:42:53;1.63;;;0.95;;
72194;SDS011;60095;50.180;9.032;2023-04-15T10:45:20;1.83;;;1.15;;
72194;SDS011;60095;50.180;9.032;2023-04-15T10:47:50;1.65;;;1.30;;
72194;SDS011;60095;50.180;9.032;2023-04-15T10:50:18;2.63;;;1.35;;
72194;SDS011;60095;50.180;9.032;2023-04-15T10:52:49;1.58;;;0.70;;
72194;SDS011;60095;50.180;9.032;2023-04-15T10:55:18;2.50;;;1.38;;
72194;SDS011;60095;50.180;9.032;2023-04-15T10:57:45;2.63;;;1.73;;
72194;SDS011;60095;50.180;9.032;2023-04-15T11:00:12;1.60;;;1.08;;
72194;SDS011;60095;50.180;9.032;2023-04-15T11:02:43;1.42;;;1.10;;
72194;SDS011;60095;50.180;9.032;2023-04-15T11:05:10;2.28;;;1.48;;
72194;SDS011;60095;50.180;9.032;2023-04-15T11:07:46;2.75;;;1.52;;
72194;SDS011;60095;50.180;9.032;2023-04-15T11:12:59;1.02;;;0.82;;
72194;SDS011;60095;50.180;9.032;2023-04-15T11:15:26;5.25;;;2.42;;
72194;SDS011;60095;50.180;9.032;2023-04-15T11:17:54;2.25;;;1.55;;
72194;SDS011;60095;50.180;9.032;2023-04-15T11:20:21;1.63;;;1.50;;
72194;SDS011;60095;50.180;9.032;2023-04-15T11:22:50;3.08;;;1.90;;
72194;SDS011;60095;50.180;9.032;2023-04-15T11:25:23;1.75;;;1.27;;
72194;SDS011;60095;50.180;9.032;2023-04-15T11:27:50;2.80;;;2.25;;
72194;SDS011;60095;50.180;9.032;2023-04-15T11:30:18;1.67;;;1.00;;
72194;SDS011;60095;50.180;9.032;2023-04-15T11:32:46;1.20;;;0.82;;
72194;SDS011;60095;50.180;9.032;2023-04-15T11:35:12;3.55;;;1.13;;
72194;SDS011;60095;50.180;9.032;2023-04-15T11:37:39;3.33;;;1.02;;
72194;SDS011;60095;50.180;9.032;2023-04-15T11:40:09;1.65;;;1.05;;
72194;SDS011;60095;50.180;9.032;2023-04-15T11:42:35;1.17;;;0.80;;
72194;SDS011;60095;50.180;9.032;2023-04-15T11:45:05;1.90;;;1.15;;
72194;SDS011;60095;50.180;9.032;2023-04-15T11:47:33;2.65;;;1.60;;
72194;SDS011;60095;50.180;9.032;2023-04-15T11:50:12;1.38;;;1.05;;
72194;SDS011;60095;50.180;9.032;2023-04-15T11:52:40;2.47;;;1.48;;
72194;SDS011;60095;50.180;9.032;2023-04-15T11:55:08;2.92;;;1.30;;
72194;SDS011;60095;50.180;9.032;2023-04-15T11:57:35;4.32;;;1.17;;
72194;SDS011;60095;50.180;9.032;2023-04-15T12:00:02;1.40;;;1.15;;
72194;SDS011;60095;50.180;9.032;2023-04-15T12:02:29;1.20;;;1.08;;
72194;SDS011;60095;50.180;9.032;2023-04-15T12:05:01;1.70;;;1.23;;
72194;SDS011;60095;50.180;9.032;2023-04-15T12:07:29;3.40;;;1.25;;
72194;SDS011;60095;50.180;9.032;2023-04-15T12:09:56;1.63;;;1.38;;
72194;SDS011;60095;50.180;9.032;2023-04-15T12:12:27;3.38;;;2.08;;
72194;SDS011;60095;50.180;9.032;2023-04-15T12:14:55;2.10;;;1.83;;
72194;SDS011;60095;50.180;9.032;2023-04-15T12:17:22;1.67;;;1.48;;
72194;SDS011;60095;50.180;9.032;2023-04-15T12:19:54;1.60;;;1.50;;
72194;SDS011;60095;50.180;9.032;2023-04-15T12:22:21;1.65;;;1.48;;
72194;SDS011;60095;50.180;9.032;2023-04-15T12:24:53;2.95;;;1.33;;
72194;SDS011;60095;50.180;9.032;2023-04-15T12:27:24;2.20;;;1.67;;
72194;SDS011;60095;50.180;9.032;2023-04-15T12:29:56;4.30;;;1.90;;
72194;SDS011;60095;50.180;9.032;2023-04-15T12:32:29;2.40;;;2.03;;
72194;SDS011;60095;50.180;9.032;2023-04-15T12:34:55;2.97;;;1.42;;
72194;SDS011;60095;50.180;9.032;2023-04-15T12:37:22;1.92;;;1.25;;
72194;SDS011;60095;50.180;9.032;2023-04-15T12:39:50;2.22;;;1.83;;
72194;SDS011;60095;50.180;9.032;2023-04-15T12:42:17;1.42;;;0.98;;
72194;SDS011;60095;50.180;9.032;2023-04-15T12:44:44;1.02;;;0.82;;
72194;SDS011;60095;50.180;9.032;2023-04-15T12:47:13;1.52;;;1.15;;
72194;SDS011;60095;50.180;9.032;2023-04-15T12:49:40;2.78;;;1.70;;
72194;SDS011;60095;50.180;9.032;2023-04-15T12:52:07;4.97;;;2.20;;
72194;SDS011;60095;50.180;9.032;2023-04-15T12:54:33;1.52;;;1.20;;
72194;SDS011;60095;50.180;9.032;2023-04-15T12:57:00;2.42;;;1.63;;
72194;SDS011;60095;50.180;9.032;2023-04-15T12:59:28;2.47;;;1.77;;
72194;SDS011;60095;50.180;9.032;2023-04-15T13:01:54;1.77;;;1.60;;
72194;SDS011;60095;50.180;9.032;2023-04-15T13:04:22;1.20;;;1.02;;
72194;SDS011;60095;50.180;9.032;2023-04-15T13:06:49;1.40;;;1.20;;
72194;SDS011;60095;50.180;9.032;2023-04-15T13:09:15;2.80;;;1.08;;
72194;SDS011;60095;50.180;9.032;2023-04-15T13:11:42;3.63;;;1.02;;
72194;SDS011;60095;50.180;9.032;2023-04-15T13:14:09;1.10;;;1.00;;
72194;SDS011;60095;50.180;9.032;2023-04-15T13:16:37;1.05;;;0.88;;
72194;SDS011;60095;50.180;9.032;2023-04-15T13:19:03;2.45;;;1.20;;
72194;SDS011;60095;50.180;9.032;2023-04-15T13:21:32;1.95;;;1.27;;
72194;SDS011;60095;50.180;9.032;2023-04-15T13:23:59;2.03;;;1.27;;
72194;SDS011;60095;50.180;9.032;2023-04-15T13:26:26;2.00;;;1.33;;
72194;SDS011;60095;50.180;9.032;2023-04-15T13:28:53;1.85;;;1.23;;
72194;SDS011;60095;50.180;9.032;2023-04-15T13:31:20;3.25;;;1.35;;
72194;SDS011;60095;50.180;9.032;2023-04-15T13:33:46;1.60;;;0.75;;
72194;SDS011;60095;50.180;9.032;2023-04-15T13:36:13;2.10;;;0.60;;
72194;SDS011;60095;50.180;9.032;2023-04-15T13:38:41;2.55;;;1.95;;
72194;SDS011;60095;50.180;9.032;2023-04-15T13:41:08;2.60;;;1.65;;
72194;SDS011;60095;50.180;9.032;2023-04-15T13:43:35;2.22;;;1.85;;
72194;SDS011;60095;50.180;9.032;2023-04-15T13:46:01;3.50;;;1.60;;
72194;SDS011;60095;50.180;9.032;2023-04-15T13:48:28;2.70;;;2.28;;
72194;SDS011;60095;50.180;9.032;2023-04-15T13:50:54;2.40;;;1.75;;
72194;SDS011;60095;50.180;9.032;2023-04-15T13:53:21;2.20;;;1.75;;
72194;SDS011;60095;50.180;9.032;2023-04-15T13:55:49;2.13;;;1.42;;
72194;SDS011;60095;50.180;9.032;2023-04-15T13:58:16;2.78;;;2.17;;
72194;SDS011;60095;50.180;9.032;2023-04-15T14:00:43;4.28;;;1.45;;
72194;SDS011;60095;50.180;9.032;2023-04-15T14:03:09;2.10;;;1.42;;
72194;SDS011;60095;50.180;9.032;2023-04-15T14:05:36;2.10;;;1.38;;
72194;SDS011;60095;50.180;9.032;2023-04-15T14:08:02;4.55;;;3.25;;
72194;SDS011;60095;50.180;9.032;2023-04-15T14:10:29;1.70;;;1.25;;
72194;SDS011;60095;50.180;9.032;2023-04-15T14:12:57;2.22;;;2.00;;
72194;SDS011;60095;50.180;9.032;2023-04-15T14:15:23;4.95;;;2.30;;
72194;SDS011;60095;50.180;9.032;2023-04-15T14:17:50;25.63;;;1.88;;
72194;SDS011;60095;50.180;9.032;2023-04-15T14:20:17;2.70;;;1.88;;
72194;SDS011;60095;50.180;9.032;2023-04-15T14:22:43;3.20;;;1.92;;
72194;SDS011;60095;50.180;9.032;2023-04-15T14:25:10;4.53;;;2.83;;
72194;SDS011;60095;50.180;9.032;2023-04-15T14:27:36;2.72;;;2.30;;
72194;SDS011;60095;50.180;9.032;2023-04-15T14:30:06;2.20;;;2.00;;
72194;SDS011;60095;50.180;9.032;2023-04-15T14:32:33;2.10;;;1.60;;
72194;SDS011;60095;50.180;9.032;2023-04-15T14:35:00;3.72;;;2.50;;
72194;SDS011;60095;50.180;9.032;2023-04-15T14:37:28;2.50;;;1.65;;
72194;SDS011;60095;50.180;9.032;2023-04-15T14:39:55;3.60;;;2.83;;
72194;SDS011;60095;50.180;9.032;2023-04-15T14:42:21;3.28;;;2.33;;
72194;SDS011;60095;50.180;9.032;2023-04-15T14:44:48;2.47;;;1.60;;
72194;SDS011;60095;50.180;9.032;2023-04-15T14:47:16;1.27;;;1.00;;
72194;SDS011;60095;50.180;9.032;2023-04-15T14:49:42;2.03;;;1.60;;
72194;SDS011;60095;50.180;9.032;2023-04-15T14:52:09;10.40;;;1.83;;